Time;durP1;ratioP1;P1;durP2;ratioP2;P2;SDS_P1;SDS_P2;PMS_P1;PMS_P2;Temp;Humidity;BMP_temperature;BMP_pressure;BME280_temperature;BME280_humidity;BME280_pressure;Samples;Min_cycle;Max_cycle;Signal;HPM_P1;HPM_P2
2022/04/26 03:38:33;;;;;;;20.00;11.35;;;9.00;99.90;;;;;;5187895;28;20029;-69
2022/04/26 03:41:04;;;;;;;18.20;11.27;;;9.20;99.90;;;;;;5187814;28;20347;-73
2022/04/26 03:43:35;;;;;;;24.58;11.25;;;9.00;99.90;;;;;;5187567;28;20021;-73
2022/04/26 03:46:06;;;;;;;22.00;11.68;;;9.40;99.90;;;;;;5187752;28;20496;-73
2022/04/26 03:48:37;;;;;;;22.90;11.68;;;9.50;99.90;;;;;;5187624;28;20034;-72
2022/04/26 03:51:08;;;;;;;18.00;11.25;;;9.70;99.90;;;;;;5187758;28;20022;-70
2022/04/26 03:53:39;;;;;;;18.70;10.23;;;9.50;99.90;;;;;;5187625;28;20105;-72
2022/04/26 03:56:10;;;;;;;21.30;10.48;;;9.70;99.90;;;;;;5187406;28;20018;-72
2022/04/26 03:58:41;;;;;;;19.25;11.23;;;9.40;99.90;;;;;;5187456;28;20100;-70
2022/04/26 04:01:11;;;;;;;22.55;11.65;;;9.40;99.90;;;;;;5187387;28;20025;-70
2022/04/26 04:03:42;;;;;;;22.52;12.10;;;9.80;99.90;;;;;;5187310;28;20034;-73
2022/04/26 04:06:13;;;;;;;26.67;11.65;;;9.80;99.90;;;;;;5187384;28;20377;-73
2022/04/26 04:08:44;;;;;;;21.77;12.30;;;9.90;99.90;;;;;;5187381;28;20026;-73
2022/04/26 04:11:15;;;;;;;17.02;11.50;;;9.90;99.90;;;;;;5187244;28;20033;-73
2022/04/26 04:13:45;;;;;;;25.15;12.95;;;9.60;99.90;;;;;;5187318;28;20497;-70
2022/04/26 04:16:16;;;;;;;23.00;12.85;;;9.50;99.90;;;;;;5187270;28;20030;-73
2022/04/26 04:21:36;;;;;;;22.10;14.05;;;9.80;99.90;;;;;;5186201;28;20060;-72
2022/04/26 04:24:07;;;;;;;24.52;13.35;;;9.90;99.90;;;;;;5185709;28;20025;-70
2022/04/26 04:26:38;;;;;;;22.63;12.75;;;10.30;99.90;;;;;;5185695;28;20540;-70
2022/04/26 04:29:09;;;;;;;23.02;11.43;;;10.30;99.90;;;;;;5186941;28;20373;-71
2022/04/26 04:31:41;;;;;;;20.65;10.88;;;10.10;99.90;;;;;;5186937;28;20037;-72
2022/04/26 04:34:11;;;;;;;25.52;9.98;;;10.10;99.90;;;;;;5186815;28;20025;-70
2022/04/26 04:36:42;;;;;;;20.20;9.45;;;10.30;99.90;;;;;;5186741;28;20028;-72
2022/04/26 04:39:19;;;;;;;22.05;9.48;;;10.30;99.90;;;;;;5186909;28;20355;-73
2022/04/26 04:41:51;;;;;;;22.60;10.05;;;10.30;99.90;;;;;;5186759;28;20101;-73
2022/04/26 04:44:22;;;;;;;17.88;8.60;;;10.60;99.90;;;;;;5185910;28;20049;-72
2022/04/26 04:46:58;;;;;;;17.40;8.48;;;10.60;99.90;;;;;;5186689;28;20030;-71
2022/04/26 04:49:28;;;;;;;21.17;8.68;;;10.90;99.90;;;;;;5186753;28;20029;-71
2022/04/26 04:51:59;;;;;;;21.92;9.52;;;11.00;99.90;;;;;;5186721;28;20025;-72
2022/04/26 04:54:30;;;;;;;15.80;8.23;;;10.60;99.90;;;;;;5186516;28;20035;-71
2022/04/26 04:57:04;;;;;;;18.95;8.57;;;11.00;99.90;;;;;;5185303;28;20136;-71
2022/04/26 04:59:34;;;;;;;18.23;8.70;;;11.10;99.90;;;;;;5186696;28;20017;-72
2022/04/26 05:02:05;;;;;;;19.67;7.88;;;10.80;99.90;;;;;;5185833;28;20076;-73
2022/04/26 05:04:36;;;;;;;21.73;8.75;;;11.10;99.90;;;;;;5186325;28;20078;-70
2022/04/26 05:07:08;;;;;;;15.70;8.35;;;11.40;99.90;;;;;;5184281;28;20459;-71
2022/04/26 05:09:38;;;;;;;14.30;7.22;;;11.70;99.90;;;;;;5186227;28;20022;-71
2022/04/26 05:12:10;;;;;;;10.77;7.18;;;11.90;99.90;;;;;;5186364;28;20088;-72
2022/04/26 05:14:40;;;;;;;25.17;8.55;;;11.80;99.90;;;;;;5186480;28;20029;-72
2022/04/26 05:17:11;;;;;;;17.60;7.53;;;11.90;99.90;;;;;;5186427;28;20025;-72
2022/04/26 05:19:42;;;;;;;17.42;7.78;;;12.10;99.90;;;;;;5185936;28;20058;-73
2022/04/26 05:22:14;;;;;;;17.42;8.82;;;12.40;99.90;;;;;;5186457;28;20030;-70
2022/04/26 05:24:53;;;;;;;14.70;8.40;;;12.70;99.90;;;;;;5186019;28;20056;-72
2022/04/26 05:27:26;;;;;;;16.65;9.38;;;12.50;99.90;;;;;;5186263;28;20037;-72
2022/04/26 05:29:57;;;;;;;15.38;8.30;;;12.80;99.90;;;;;;5175676;28;20058;-71
2022/04/26 05:32:29;;;;;;;14.98;7.97;;;12.80;99.90;;;;;;5182632;28;20035;-71
2022/04/26 05:35:00;;;;;;;17.08;7.68;;;;;;;;;;5174105;28;20118;-71
2022/04/26 05:37:32;;;;;;;19.45;8.45;;;;;;;;;;5179639;28;20034;-72
2022/04/26 05:40:03;;;;;;;15.20;7.53;;;;;;;;;;5177951;28;20029;-73
2022/04/26 05:42:40;;;;;;;19.30;8.18;;;;;;;;;;5177806;28;20033;-73
2022/04/26 05:45:10;;;;;;;23.15;9.27;;;12.90;99.90;;;;;;5181439;28;20060;-70
2022/04/26 05:47:43;;;;;;;20.50;8.23;;;13.30;99.90;;;;;;5176597;28;20031;-72
2022/04/26 05:50:14;;;;;;;17.23;8.48;;;14.10;99.90;;;;;;5171283;28;20043;-70
2022/04/26 05:52:48;;;;;;;17.58;8.93;;;14.50;99.90;;;;;;5185403;28;20077;-68
2022/04/26 05:55:20;;;;;;;20.13;9.73;;;14.80;99.90;;;;;;5178125;28;20038;-72
2022/04/26 05:57:51;;;;;;;16.35;8.32;;;14.70;99.90;;;;;;5173178;28;20505;-72
2022/04/26 06:00:22;;;;;;;29.02;10.63;;;14.90;99.90;;;;;;5175286;28;20046;-71
2022/04/26 06:02:52;;;;;;;22.52;10.75;;;15.10;99.90;;;;;;5176375;28;20359;-72
2022/04/26 06:05:32;;;;;;;32.88;14.65;;;15.10;99.90;;;;;;5175039;28;20040;-73
2022/04/26 06:08:03;;;;;;;30.70;16.10;;;15.40;99.90;;;;;;5167627;28;20045;-72
2022/04/26 06:10:39;;;;;;;30.20;14.63;;;15.10;99.90;;;;;;5178956;28;20105;-73
2022/04/26 06:13:10;;;;;;;28.30;14.80;;;15.50;99.90;;;;;;5176453;28;20034;-70
2022/04/26 06:15:44;;;;;;;35.38;13.32;;;15.80;99.90;;;;;;5177638;28;20088;-73
2022/04/26 06:18:15;;;;;;;21.00;10.02;;;15.90;99.90;;;;;;5172805;28;20077;-71
2022/04/26 06:20:45;;;;;;;24.67;10.57;;;16.00;99.90;;;;;;5171765;28;20054;-70
2022/04/26 06:23:16;;;;;;;17.77;9.07;;;16.30;99.90;;;;;;5170417;28;20030;-71
2022/04/26 06:25:47;;;;;;;19.50;7.90;;;16.70;99.90;;;;;;5171865;28;20070;-69
2022/04/26 06:28:18;;;;;;;13.23;6.22;;;17.00;99.90;;;;;;5173421;28;20041;-69
2022/04/26 06:30:49;;;;;;;16.38;6.72;;;17.30;99.90;;;;;;5169720;28;20037;-69
2022/04/26 06:33:20;;;;;;;12.80;4.53;;;17.70;99.90;;;;;;5174249;28;21173;-69
2022/04/26 06:35:50;;;;;;;15.05;3.92;;;17.90;99.90;;;;;;5177416;28;20394;-70
2022/04/26 06:38:22;;;;;;;9.00;3.42;;;17.60;99.90;;;;;;5169636;28;20029;-68
2022/04/26 06:40:53;;;;;;;13.13;3.33;;;18.10;99.90;;;;;;5173135;28;20034;-72
2022/04/26 06:43:24;;;;;;;13.85;3.20;;;18.60;99.90;;;;;;5168432;28;20065;-73
2022/04/26 06:45:55;;;;;;;12.40;3.30;;;18.30;99.90;;;;;;5170069;28;20577;-73
2022/04/26 06:48:26;;;;;;;8.88;2.63;;;18.60;99.90;;;;;;5177033;28;20033;-73
2022/04/26 06:50:57;;;;;;;6.90;3.05;;;18.90;99.90;;;;;;5173694;28;20108;-72
2022/04/26 06:53:28;;;;;;;13.82;3.40;;;18.90;99.90;;;;;;5171989;28;20068;-74
2022/04/26 06:55:59;;;;;;;10.00;3.40;;;19.30;99.90;;;;;;5171895;28;20034;-72
2022/04/26 06:58:33;;;;;;;4.65;2.72;;;19.00;99.90;;;;;;5180815;28;20030;-71
2022/04/26 07:01:04;;;;;;;10.05;3.60;;;18.70;99.90;;;;;;5188073;28;20026;-69
2022/04/26 07:03:35;;;;;;;7.63;3.42;;;18.70;99.90;;;;;;5171784;28;20073;-72
2022/04/26 07:06:05;;;;;;;6.38;2.38;;;19.00;99.90;;;;;;5170825;28;20422;-71
2022/04/26 07:08:36;;;;;;;12.13;2.40;;;19.30;99.90;;;;;;5176363;28;20025;-69
2022/04/26 07:11:07;;;;;;;5.22;1.85;;;19.00;99.90;;;;;;5172480;28;20440;-72
2022/04/26 07:13:38;;;;;;;8.90;2.40;;;19.50;99.90;;;;;;5172871;28;20026;-72
2022/04/26 07:16:09;;;;;;;5.65;2.30;;;19.60;99.90;;;;;;5173394;28;20026;-70
2022/04/26 07:18:40;;;;;;;7.75;2.08;;;19.40;99.90;;;;;;5174526;28;20998;-72
2022/04/26 07:21:10;;;;;;;7.85;1.85;;;19.50;99.90;;;;;;5175046;28;20065;-71
2022/04/26 07:23:41;;;;;;;8.90;2.47;;;19.60;99.90;;;;;;5170257;28;20407;-70
2022/04/26 07:26:12;;;;;;;6.95;2.03;;;19.70;99.90;;;;;;5170431;28;20121;-69
2022/04/26 07:28:43;;;;;;;10.13;2.10;;;19.50;99.90;;;;;;5176975;28;20497;-72
2022/04/26 07:31:14;;;;;;;7.20;1.95;;;19.50;99.90;;;;;;5174578;28;20148;-72
2022/04/26 07:36:34;;;;;;;4.18;2.35;;;19.40;99.90;;;;;;5171904;28;20500;-69
2022/04/26 07:39:06;;;;;;;6.82;2.85;;;19.70;99.90;;;;;;5172687;28;20021;-72
2022/04/26 07:41:37;;;;;;;8.38;3.15;;;19.70;99.90;;;;;;5175370;28;20125;-72
2022/04/26 07:44:07;;;;;;;7.88;2.20;;;20.10;99.90;;;;;;5174316;28;20022;-72
2022/04/26 07:46:39;;;;;;;7.13;2.00;;;20.20;99.90;;;;;;5172300;28;20034;-72
2022/04/26 07:49:11;;;;;;;7.80;1.73;;;20.20;99.90;;;;;;5169996;28;20031;-70
2022/04/26 07:51:43;;;;;;;5.10;1.63;;;20.30;99.90;;;;;;5172905;28;20030;-69
2022/04/26 07:54:16;;;;;;;9.10;1.70;;;20.50;99.90;;;;;;5170067;28;20030;-69
2022/04/26 07:56:47;;;;;;;5.35;1.85;;;20.40;99.90;;;;;;5178974;28;20387;-69
2022/04/26 07:59:18;;;;;;;7.97;1.73;;;20.60;99.90;;;;;;5188398;28;20037;-69
2022/04/26 08:01:49;;;;;;;6.97;1.77;;;20.50;99.90;;;;;;5191949;28;20034;-69
2022/04/26 08:04:19;;;;;;;5.47;1.70;;;20.30;99.90;;;;;;5174115;28;20132;-70
2022/04/26 08:06:50;;;;;;;6.78;1.60;;;20.50;99.90;;;;;;5175984;28;20442;-71
2022/04/26 08:09:21;;;;;;;6.82;1.35;;;20.70;99.90;;;;;;5188729;28;20535;-71
2022/04/26 08:11:52;;;;;;;4.65;1.40;;;20.90;99.90;;;;;;5169077;28;20038;-70
2022/04/26 08:14:23;;;;;;;2.67;1.52;;;21.00;99.90;;;;;;5174852;28;20048;-70
2022/04/26 08:16:54;;;;;;;7.15;1.30;;;20.80;99.90;;;;;;5175981;28;20041;-70
2022/04/26 08:19:25;;;;;;;3.92;1.60;;;20.80;99.90;;;;;;5170627;28;20114;-72
2022/04/26 08:21:56;;;;;;;8.07;1.63;;;20.40;99.90;;;;;;5173591;28;20033;-71
2022/04/26 08:27:25;;;;;;;2.65;1.40;;;20.80;99.90;;;;;;5172305;28;20120;-73
2022/04/26 08:30:03;;;;;;;4.03;1.20;;;21.40;99.90;;;;;;5169873;28;20022;-72
2022/04/26 08:32:47;;;;;;;9.57;1.88;;;21.30;99.90;;;;;;5174843;28;20022;-71
2022/04/26 08:35:22;;;;;;;3.42;1.30;;;21.50;99.90;;;;;;5171080;28;20031;-71
2022/04/26 08:37:53;;;;;;;4.75;1.45;;;21.50;99.90;;;;;;5171698;28;20022;-72
2022/04/26 08:40:26;;;;;;;6.30;1.63;;;21.50;99.90;;;;;;5172854;28;20022;-70
2022/04/26 08:42:59;;;;;;;4.30;1.20;;;21.70;99.90;;;;;;5169832;28;20116;-72
2022/04/26 08:45:31;;;;;;;5.03;1.17;;;21.70;99.90;;;;;;5169691;28;20036;-71
2022/04/26 08:51:04;;;;;;;5.35;1.50;;;21.50;99.90;;;;;;5175165;28;20057;-69
2022/04/26 08:53:36;;;;;;;4.28;1.40;;;21.80;99.90;;;;;;5168747;28;20104;-70
2022/04/26 08:56:07;;;;;;;6.70;1.52;;;22.00;99.90;;;;;;5170926;28;20386;-72
2022/04/26 08:58:39;;;;;;;6.65;1.75;;;22.00;99.90;;;;;;5171087;28;20026;-69
2022/04/26 09:01:24;;;;;;;3.13;1.30;;;22.50;99.90;;;;;;5172150;28;20100;-73
2022/04/26 09:03:56;;;;;;;7.28;1.40;;;22.30;99.90;;;;;;5173022;28;20065;-73
2022/04/26 09:06:36;;;;;;;4.82;1.55;;;22.10;99.90;;;;;;5173169;28;20431;-73
2022/04/26 09:09:12;;;;;;;7.47;1.58;;;22.40;99.90;;;;;;5170185;28;20033;-72
2022/04/26 09:11:43;;;;;;;4.70;1.67;;;22.20;99.90;;;;;;5175186;28;20470;-71
2022/04/26 09:14:34;;;;;;;8.43;1.33;;;22.10;99.90;;;;;;5173912;28;20375;-71
2022/04/26 09:17:07;;;;;;;12.07;1.60;;;21.80;99.90;;;;;;5174526;28;20127;-68
2022/04/26 09:19:53;;;;;;;6.43;1.50;;;21.70;99.90;;;;;;5169652;28;20054;-69
2022/04/26 09:22:27;;;;;;;7.35;1.48;;;21.60;99.90;;;;;;5184934;28;20485;-69
2022/04/26 09:25:03;;;;;;;3.88;1.38;;;22.00;99.90;;;;;;5173998;28;20042;-68
2022/04/26 09:27:41;;;;;;;4.25;1.45;;;22.00;99.90;;;;;;5171024;28;20425;-69
2022/04/26 09:30:13;;;;;;;2.65;1.00;;;22.20;99.90;;;;;;5170402;28;20038;-70
2022/04/26 09:32:49;;;;;;;7.30;1.20;;;22.10;99.90;;;;;;5168369;28;20062;-70
2022/04/26 09:35:21;;;;;;;4.10;0.98;;;22.10;99.90;;;;;;5168685;28;20034;-71
2022/04/26 09:37:52;;;;;;;6.18;1.25;;;22.00;99.90;;;;;;5171419;28;20030;-71
2022/04/26 09:40:28;;;;;;;6.80;1.60;;;22.50;99.90;;;;;;5164097;28;20034;-70
2022/04/26 09:42:59;;;;;;;5.53;1.95;;;22.50;99.90;;;;;;5172629;28;20058;-71
2022/04/26 09:45:30;;;;;;;4.15;1.23;;;22.20;99.90;;;;;;5172518;28;20116;-70
2022/04/26 09:48:01;;;;;;;2.97;1.40;;;22.40;99.90;;;;;;5170879;28;20022;-71
2022/04/26 09:50:33;;;;;;;3.10;1.60;;;21.70;99.90;;;;;;5177548;28;20501;-71
2022/04/26 09:53:04;;;;;;;6.65;1.52;;;21.80;99.90;;;;;;5172775;28;20094;-69
2022/04/26 09:55:36;;;;;;;3.47;1.55;;;21.90;99.90;;;;;;5174021;28;20026;-73
2022/04/26 09:58:07;;;;;;;5.88;2.15;;;22.10;99.90;;;;;;5166643;28;20029;-70
2022/04/26 10:00:43;;;;;;;2.65;1.35;;;22.00;99.90;;;;;;5169961;28;20057;-70
2022/04/26 10:03:19;;;;;;;4.75;1.20;;;22.00;99.90;;;;;;5169197;28;20112;-69
2022/04/26 10:05:58;;;;;;;3.55;1.25;;;22.20;99.90;;;;;;5169167;28;20038;-70
2022/04/26 10:08:32;;;;;;;5.18;1.58;;;22.20;99.90;;;;;;5169810;28;20126;-70
2022/04/26 10:11:05;;;;;;;3.75;1.15;;;22.50;99.90;;;;;;5172575;28;20073;-70
2022/04/26 10:13:43;;;;;;;3.80;1.27;;;21.90;99.90;;;;;;5173164;28;20022;-71
2022/04/26 10:16:24;;;;;;;8.02;1.55;;;22.20;99.90;;;;;;5168945;28;20180;-70
2022/04/26 10:19:08;;;;;;;7.88;1.73;;;22.10;99.90;;;;;;5170654;28;20100;-71
2022/04/26 10:21:39;;;;;;;6.65;1.45;;;22.30;99.90;;;;;;5178140;28;20497;-71
2022/04/26 10:24:21;;;;;;;4.10;1.50;;;22.60;99.90;;;;;;5175795;28;20050;-70
2022/04/26 10:26:52;;;;;;;5.93;1.40;;;22.00;99.90;;;;;;5173183;28;20027;-70
2022/04/26 10:29:25;;;;;;;6.00;1.80;;;22.30;99.90;;;;;;5170336;28;20076;-73
2022/04/26 10:31:55;;;;;;;3.85;1.50;;;22.60;99.90;;;;;;5176751;28;20413;-74
2022/04/26 10:34:29;;;;;;;8.70;2.03;;;22.50;99.90;;;;;;5171955;28;20117;-70
2022/04/26 10:37:06;;;;;;;3.13;1.17;;;22.60;99.90;;;;;;5170612;28;20497;-71
2022/04/26 10:39:42;;;;;;;6.35;1.85;;;22.10;99.90;;;;;;5176313;28;20038;-74
2022/04/26 10:42:15;;;;;;;8.57;3.58;;;21.90;99.90;;;;;;5178929;28;20529;-71
2022/04/26 10:44:48;;;;;;;6.85;2.00;;;22.00;99.90;;;;;;5173236;28;20366;-70
2022/04/26 10:47:19;;;;;;;6.38;2.72;;;22.20;99.90;;;;;;5171638;28;20029;-70
2022/04/26 10:49:51;;;;;;;7.72;2.13;;;22.50;99.90;;;;;;5174640;28;20045;-70
2022/04/26 10:52:35;;;;;;;5.20;1.63;;;22.40;99.90;;;;;;5169810;28;20034;-70
2022/04/26 10:55:08;;;;;;;5.05;1.75;;;21.90;99.90;;;;;;5169246;28;20105;-72
2022/04/26 10:57:49;;;;;;;5.60;1.40;;;22.10;99.90;;;;;;5173180;28;20030;-72
2022/04/26 11:00:27;;;;;;;4.80;1.92;;;22.20;99.90;;;;;;5167061;28;20026;-71
2022/04/26 11:03:04;;;;;;;5.25;1.52;;;22.40;99.90;;;;;;5172150;28;20374;-72
2022/04/26 11:05:35;;;;;;;5.20;1.30;;;22.00;99.90;;;;;;5172085;28;20104;-74
2022/04/26 11:08:06;;;;;;;2.40;1.08;;;21.90;99.90;;;;;;5169452;28;20435;-71
2022/04/26 11:13:35;;;;;;;5.05;1.48;;;22.50;99.00;;;;;;5174229;28;20040;-73
2022/04/26 11:16:08;;;;;;;4.30;1.48;;;21.90;98.20;;;;;;5169648;28;20493;-73
2022/04/26 11:18:42;;;;;;;3.00;1.00;;;22.50;99.90;;;;;;5168595;28;20038;-70
2022/04/26 11:21:14;;;;;;;4.07;1.55;;;22.40;99.00;;;;;;5173729;28;20050;-71
2022/04/26 11:29:42;;;;;;;4.43;1.20;;;22.10;99.00;;;;;;5169984;28;20041;-69
2022/04/26 11:32:34;;;;;;;3.80;1.27;;;22.50;99.90;;;;;;5187174;28;20385;-72
2022/04/26 11:35:06;;;;;;;4.25;1.10;;;22.30;96.60;;;;;;5187819;28;20025;-69
2022/04/26 11:37:47;;;;;;;3.20;1.25;;;22.30;97.00;;;;;;5187742;28;20049;-69
2022/04/26 11:40:28;;;;;;;3.08;1.00;;;21.70;97.80;;;;;;5187557;28;20652;-72
2022/04/26 11:43:10;;;;;;;3.17;1.27;;;22.40;99.90;;;;;;5187755;28;20025;-70
2022/04/26 11:45:44;;;;;;;2.97;1.08;;;22.30;97.30;;;;;;5187594;28;20061;-73
2022/04/26 11:48:16;;;;;;;5.43;1.33;;;22.60;99.90;;;;;;5187301;28;20025;-72
2022/04/26 11:50:49;;;;;;;8.05;2.05;;;22.70;98.40;;;;;;5187290;28;20029;-70
2022/04/26 11:53:22;;;;;;;3.17;0.95;;;22.90;99.00;;;;;;5187277;28;20026;-70
2022/04/26 11:56:00;;;;;;;3.75;1.30;;;22.30;95.50;;;;;;5187133;28;20026;-72
2022/04/26 11:58:32;;;;;;;3.78;1.20;;;22.80;97.60;;;;;;5174705;28;20022;-71
2022/04/26 12:01:11;;;;;;;4.45;1.30;;;22.30;96.20;;;;;;5179979;28;20029;-71
2022/04/26 12:03:48;;;;;;;2.40;1.02;;;22.40;98.40;;;;;;5202445;28;20516;-73
2022/04/26 12:06:32;;;;;;;3.03;1.30;;;22.60;97.20;;;;;;5187337;28;20040;-72
2022/04/26 12:09:07;;;;;;;4.82;1.02;;;22.70;95.80;;;;;;5186943;28;20173;-73
2022/04/26 12:11:38;;;;;;;4.60;1.20;;;22.50;93.80;;;;;;5186506;28;20362;-72
2022/04/26 12:14:17;;;;;;;3.38;1.17;;;22.20;94.10;;;;;;5186373;28;20474;-69
2022/04/26 12:16:54;;;;;;;4.00;1.30;;;22.70;98.50;;;;;;5184567;28;20101;-70
2022/04/26 12:19:36;;;;;;;6.03;1.48;;;23.10;95.90;;;;;;5186061;28;20046;-71
2022/04/26 12:22:06;;;;;;;6.13;1.70;;;22.90;95.90;;;;;;5186980;28;20068;-73
2022/04/26 12:24:47;;;;;;;7.70;1.27;;;23.10;94.60;;;;;;5185649;28;20438;-70
2022/04/26 12:27:22;;;;;;;3.03;0.98;;;22.80;93.70;;;;;;5186756;28;20422;-73
2022/04/26 12:29:53;;;;;;;8.18;1.30;;;22.60;94.10;;;;;;5182656;28;20038;-72
2022/04/26 12:32:28;;;;;;;2.67;1.10;;;22.40;90.20;;;;;;5166254;28;20097;-69
2022/04/26 12:35:02;;;;;;;4.10;1.10;;;22.60;91.80;;;;;;5166358;28;20027;-71
2022/04/26 12:37:34;;;;;;;3.80;1.90;;;22.80;92.40;;;;;;5166307;28;20116;-73
2022/04/26 12:40:06;;;;;;;4.75;1.08;;;23.00;95.40;;;;;;5165876;28;20501;-69
2022/04/26 12:42:39;;;;;;;5.85;1.48;;;22.90;96.10;;;;;;5165747;28;20030;-74
2022/04/26 12:45:21;;;;;;;5.72;1.65;;;22.20;91.50;;;;;;5166212;28;20030;-72
2022/04/26 12:51:11;;;;;;;1.73;0.80;;;22.50;92.70;;;;;;5166289;28;20202;-69
2022/04/26 12:53:41;;;;;;;3.50;1.30;;;22.90;91.80;;;;;;5166021;28;20018;-72
2022/04/26 12:56:13;;;;;;;5.90;1.20;;;23.10;93.00;;;;;;5165897;28;20054;-69
2022/04/26 12:58:46;;;;;;;4.15;1.00;;;22.60;91.80;;;;;;5166329;28;20034;-69
2022/04/26 13:01:18;;;;;;;5.03;1.10;;;22.50;90.00;;;;;;5164391;28;20030;-69
2022/04/26 13:03:49;;;;;;;2.45;1.10;;;22.90;89.80;;;;;;5165945;28;20018;-70
2022/04/26 13:06:20;;;;;;;2.28;1.27;;;22.70;92.80;;;;;;5164656;28;20048;-69
2022/04/26 13:08:51;;;;;;;2.50;1.00;;;23.10;90.00;;;;;;5165732;28;20022;-69
2022/04/26 13:11:22;;;;;;;9.52;1.20;;;22.90;88.50;;;;;;5166018;28;20479;-71
2022/04/26 13:13:52;;;;;;;3.90;1.10;;;22.60;89.80;;;;;;5166131;28;20026;-71
2022/04/26 13:16:23;;;;;;;5.18;1.20;;;23.10;93.00;;;;;;5165739;28;20022;-69
2022/04/26 13:18:54;;;;;;;5.25;1.13;;;23.10;88.50;;;;;;5165689;28;20136;-70
2022/04/26 13:21:26;;;;;;;4.00;1.50;;;22.60;88.10;;;;;;5164280;28;20050;-73
2022/04/26 13:23:57;;;;;;;11.32;1.45;;;22.30;87.40;;;;;;5172324;28;20385;-71
2022/04/26 13:26:31;;;;;;;3.58;1.10;;;22.50;89.80;;;;;;5185856;28;20034;-72
2022/04/26 13:29:03;;;;;;;5.28;1.13;;;22.70;92.40;;;;;;5186129;28;20474;-70
2022/04/26 13:31:34;;;;;;;4.55;1.10;;;22.80;88.80;;;;;;5184362;28;20037;-73
2022/04/26 13:34:05;;;;;;;3.53;1.02;;;22.80;89.40;;;;;;5185706;28;20018;-70
2022/04/26 13:36:36;;;;;;;3.10;1.08;;;22.40;86.60;;;;;;5186122;28;20076;-72
2022/04/26 13:39:07;;;;;;;5.25;1.00;;;22.90;85.60;;;;;;5186005;28;20018;-69
2022/04/26 13:41:38;;;;;;;5.18;1.27;;;22.80;87.10;;;;;;5201224;28;20112;-72
2022/04/26 13:44:09;;;;;;;6.68;1.15;;;22.00;85.10;;;;;;5185835;28;20461;-69
2022/04/26 13:46:40;;;;;;;4.57;1.50;;;22.30;87.60;;;;;;5185845;28;20030;-69
2022/04/26 13:49:11;;;;;;;2.20;0.90;;;22.20;86.80;;;;;;5185819;28;20030;-69
2022/04/26 13:51:41;;;;;;;4.53;1.10;;;22.70;85.40;;;;;;5185787;28;20445;-68
2022/04/26 13:54:12;;;;;;;6.35;1.10;;;22.20;87.30;;;;;;5187563;28;20029;-69
2022/04/26 13:56:44;;;;;;;5.03;1.00;;;22.00;88.30;;;;;;5189794;28;20037;-70
2022/04/26 13:59:15;;;;;;;4.15;1.13;;;23.10;86.40;;;;;;5189467;28;20097;-72
2022/04/26 14:01:48;;;;;;;9.40;1.45;;;22.60;85.50;;;;;;5189171;28;20022;-69
2022/04/26 14:04:20;;;;;;;4.18;1.20;;;22.20;85.50;;;;;;5189366;28;20033;-70
2022/04/26 14:06:51;;;;;;;3.10;1.23;;;22.30;87.50;;;;;;5189600;28;20044;-71
2022/04/26 14:09:22;;;;;;;2.80;1.45;;;21.90;85.80;;;;;;5187861;28;20026;-69
2022/04/26 14:12:07;;;;;;;5.88;1.27;;;22.30;86.10;;;;;;5189379;28;20041;-68
2022/04/26 14:24:04;;;;;;;4.32;1.00;;;22.30;86.60;;;;;;5146344;28;20050;-69
2022/04/26 14:26:41;;;;;;;4.07;1.27;;;22.30;85.50;;;;;;5146481;28;20066;-70
2022/04/26 14:29:16;;;;;;;2.50;1.02;;;21.90;87.20;;;;;;5146484;28;20037;-68
2022/04/26 14:31:51;;;;;;;3.47;1.30;;;22.30;87.90;;;;;;5164311;28;20125;-68
2022/04/26 14:34:38;;;;;;;2.72;1.65;;;21.70;87.90;;;;;;5188754;28;20029;-69
2022/04/26 14:37:20;;;;;;;7.57;1.45;;;21.60;90.50;;;;;;5188783;28;20022;-71
2022/04/26 14:39:54;;;;;;;3.42;1.40;;;21.70;88.60;;;;;;5188608;28;20092;-70
2022/04/26 14:42:29;;;;;;;4.32;2.38;;;21.50;88.30;;;;;;5188627;28;20389;-73
2022/04/26 14:45:09;;;;;;;5.95;2.20;;;21.30;91.60;;;;;;5188802;28;20087;-72
2022/04/26 14:47:43;;;;;;;5.57;1.58;;;21.50;92.10;;;;;;5175828;28;20019;-69
2022/04/26 14:50:20;;;;;;;2.00;1.25;;;21.30;92.90;;;;;;5168043;28;20031;-69
2022/04/26 14:52:53;;;;;;;4.72;1.50;;;20.70;90.00;;;;;;5168602;28;20035;-70
2022/04/26 14:55:33;;;;;;;5.88;1.65;;;20.90;93.10;;;;;;5168118;28;20014;-68
2022/04/26 14:58:18;;;;;;;8.35;1.95;;;21.00;91.90;;;;;;5168169;28;20422;-68
2022/04/26 15:01:02;;;;;;;8.02;1.75;;;21.10;91.30;;;;;;5177901;28;20037;-68
2022/04/26 15:03:37;;;;;;;5.38;1.80;;;20.70;92.00;;;;;;5188576;28;20030;-68
2022/04/26 15:06:14;;;;;;;3.92;1.70;;;20.30;92.90;;;;;;5185990;28;20481;-68
2022/04/26 15:16:37;;;;;;;3.08;1.73;;;20.60;94.10;;;;;;5188736;28;20056;-69
2022/04/26 15:17:37;;;;;;;4.05;1.88;;;20.80;98.90;;;;;;5188355;28;20033;-69
2022/04/26 15:20:12;;;;;;;2.10;1.45;;;20.10;99.90;;;;;;5187347;28;20073;-68
2022/04/26 15:22:47;;;;;;;3.85;1.55;;;19.90;99.90;;;;;;5187965;28;20117;-70
2022/04/26 15:25:26;;;;;;;5.00;1.75;;;19.40;99.90;;;;;;5187881;28;20382;-72
2022/04/26 15:28:01;;;;;;;7.30;2.37;;;19.10;99.90;;;;;;5167564;28;20031;-73
2022/04/26 15:30:49;;;;;;;5.50;1.70;;;19.70;99.90;;;;;;5175120;28;20104;-72
2022/04/26 15:33:29;;;;;;;3.13;2.08;;;19.00;99.90;;;;;;5202299;28;20033;-72
2022/04/26 15:36:06;;;;;;;3.60;1.85;;;18.80;99.90;;;;;;5187736;28;20022;-71
2022/04/26 15:38:42;;;;;;;5.63;1.70;;;18.60;99.90;;;;;;5187356;28;20026;-72
2022/04/26 15:41:33;;;;;;;2.30;1.65;;;18.80;99.90;;;;;;5187620;28;20026;-73
2022/04/26 15:44:07;;;;;;;4.82;1.92;;;18.60;99.90;;;;;;5187477;28;20112;-72
2022/04/26 15:46:43;;;;;;;8.43;2.03;;;18.30;99.90;;;;;;5187436;28;20085;-73
2022/04/26 15:49:20;;;;;;;3.08;1.98;;;18.20;99.90;;;;;;5187319;28;20033;-73
2022/04/26 15:52:01;;;;;;;9.23;2.35;;;18.00;99.90;;;;;;5186377;28;20087;-73
2022/04/26 15:54:37;;;;;;;7.35;2.13;;;17.90;99.90;;;;;;5187683;28;20029;-73
2022/04/26 15:57:13;;;;;;;4.72;2.85;;;17.90;99.90;;;;;;5187590;28;20022;-73
2022/04/26 15:59:48;;;;;;;12.52;3.40;;;17.80;99.90;;;;;;5187301;28;20049;-73
2022/04/26 16:02:26;;;;;;;7.57;1.92;;;17.70;99.90;;;;;;5187012;28;20028;-73
2022/04/26 16:05:03;;;;;;;4.55;2.10;;;17.60;99.90;;;;;;5185824;28;20409;-73
2022/04/26 16:07:38;;;;;;;5.72;2.85;;;17.70;99.90;;;;;;5185544;28;20026;-73
2022/04/26 16:21:44;;;;;;;7.25;3.20;;;16.90;99.90;;;;;;5186700;28;19984;-73
2022/04/26 16:24:25;;;;;;;5.90;2.72;;;16.70;99.90;;;;;;5185334;28;20133;-73
2022/04/26 16:27:09;;;;;;;5.28;3.10;;;16.90;99.90;;;;;;5186656;28;20438;-73
2022/04/26 16:29:46;;;;;;;5.70;3.38;;;16.90;99.90;;;;;;5185523;28;20056;-72
2022/04/26 16:32:35;;;;;;;4.57;3.10;;;16.40;99.90;;;;;;5184935;28;20116;-72
2022/04/26 16:35:15;;;;;;;7.10;4.22;;;16.50;99.90;;;;;;5186499;28;20030;-73
2022/04/26 16:37:56;;;;;;;9.15;4.00;;;16.60;99.90;;;;;;5186510;28;20092;-73
2022/04/26 16:40:33;;;;;;;11.05;4.95;;;16.30;99.90;;;;;;5186791;28;20026;-72
2022/04/26 16:43:10;;;;;;;9.13;5.00;;;16.20;99.90;;;;;;5186341;28;20049;-73
2022/04/26 16:45:49;;;;;;;14.85;5.45;;;16.00;99.90;;;;;;5183344;28;20386;-73
2022/04/26 16:48:26;;;;;;;11.32;4.53;;;16.00;99.90;;;;;;5184119;28;20113;-73
2022/04/26 16:51:01;;;;;;;15.55;6.80;;;15.80;99.90;;;;;;5186437;28;20052;-72
2022/04/26 16:53:35;;;;;;;12.82;7.35;;;16.00;99.90;;;;;;5186391;28;20026;-73
2022/04/26 16:56:10;;;;;;;12.63;6.82;;;15.80;99.90;;;;;;5186004;28;20034;-73
2022/04/26 16:58:44;;;;;;;15.60;7.05;;;15.80;99.90;;;;;;5186464;28;20057;-72
2022/04/26 17:01:19;;;;;;;15.68;6.82;;;15.60;99.90;;;;;;5185890;28;20022;-73
2022/04/26 17:04:10;;;;;;;10.43;6.05;;;15.50;99.90;;;;;;5185006;28;20029;-73
2022/04/26 17:06:51;;;;;;;11.85;5.95;;;15.60;99.90;;;;;;5185816;28;20512;-72
2022/04/26 17:09:26;;;;;;;8.27;5.63;;;15.40;99.90;;;;;;5186260;28;20061;-72
2022/04/26 17:12:15;;;;;;;12.90;6.13;;;15.20;99.90;;;;;;5186089;28;20032;-73
2022/04/26 17:14:51;;;;;;;14.25;6.95;;;15.20;99.90;;;;;;5185202;28;20068;-73
2022/04/26 17:17:27;;;;;;;13.25;6.50;;;15.40;99.90;;;;;;5186161;28;20029;-73
2022/04/26 17:20:16;;;;;;;10.05;4.70;;;15.10;99.90;;;;;;5185557;28;20042;-73
2022/04/26 17:22:53;;;;;;;7.53;4.53;;;15.10;99.90;;;;;;5185118;28;20018;-74
2022/04/26 17:25:35;;;;;;;9.65;5.03;;;15.10;99.90;;;;;;5185125;28;20026;-73
2022/04/26 17:28:14;;;;;;;10.27;4.97;;;15.00;99.90;;;;;;5168437;28;20046;-73
2022/04/26 17:30:54;;;;;;;9.15;5.63;;;14.90;99.90;;;;;;5179099;28;20035;-72
2022/04/26 17:33:34;;;;;;;44.15;22.25;;;14.80;99.90;;;;;;5169854;28;20022;-71
2022/04/26 17:36:08;;;;;;;10.55;5.65;;;14.30;99.90;;;;;;5168317;28;20034;-68
2022/04/26 17:38:42;;;;;;;10.07;5.40;;;14.20;99.90;;;;;;5169440;28;20026;-70
2022/04/26 17:41:17;;;;;;;8.30;4.78;;;14.50;99.90;;;;;;5169215;28;20026;-72
2022/04/26 17:43:52;;;;;;;8.20;5.15;;;14.30;99.90;;;;;;5168681;28;20478;-70
2022/04/26 17:46:24;;;;;;;11.75;4.57;;;13.80;99.90;;;;;;5167561;28;20043;-69
2022/04/26 17:48:59;;;;;;;8.07;4.88;;;13.80;99.90;;;;;;5169383;28;20077;-69